sensor_id;sensor_type;location;lat;lon;timestamp;temperature;humidity
15298;DHT22;7750;48.796;9.026;2023-09-12T07:05:07;23.90;69.30
15298;DHT22;7750;48.796;9.026;2023-09-12T07:10:07;24.10;69.10
15298;DHT22;7750;48.796;9.026;2023-09-12T07:15:08;24.30;68.90
15298;DHT22;7750;48.796;9.026;2023-09-12T07:20:10;24.50;69.50
15298;DHT22;7750;48.796;9.026;2023-09-12T07:25:13;24.80;69.00
15298;DHT22;7750;48.796;9.026;2023-09-12T07:30:14;25.20;69.40
15298;DHT22;7750;48.796;9.026;2023-09-12T07:35:16;25.50;69.70
15298;DHT22;7750;48.796;9.026;2023-09-12T07:40:16;26.20;68.60
15298;DHT22;7750;48.796;9.026;2023-09-12T07:45:17;26.90;65.70
15298;DHT22;7750;48.796;9.026;2023-09-12T07:50:18;27.50;65.30
15298;DHT22;7750;48.796;9.026;2023-09-12T07:55:20;28.10;63.70
15298;DHT22;7750;48.796;9.026;2023-09-12T08:00:24;28.50;61.60
15298;DHT22;7750;48.796;9.026;2023-09-12T08:05:25;28.60;60.90
15298;DHT22;7750;48.796;9.026;2023-09-12T08:10:27;28.50;60.50
15298;DHT22;7750;48.796;9.026;2023-09-12T08:15:30;28.30;61.40
15298;DHT22;7750;48.796;9.026;2023-09-12T08:20:31;28.20;61.80
15298;DHT22;7750;48.796;9.026;2023-09-12T08:25:33;28.00;61.60
15298;DHT22;7750;48.796;9.026;2023-09-12T08:30:33;27.90;63.00
15298;DHT22;7750;48.796;9.026;2023-09-12T08:35:34;27.80;63.90
15298;DHT22;7750;48.796;9.026;2023-09-12T08:40:37;27.90;61.90
15298;DHT22;7750;48.796;9.026;2023-09-12T08:45:38;28.00;62.20
15298;DHT22;7750;48.796;9.026;2023-09-12T08:50:40;28.10;61.40
15298;DHT22;7750;48.796;9.026;2023-09-12T08:55:41;28.30;60.80
15298;DHT22;7750;48.796;9.026;2023-09-12T09:31:44;29.00;60.40
15298;DHT22;7750;48.796;9.026;2023-09-12T09:36:48;29.20;60.70
15298;DHT22;7750;48.796;9.026;2023-09-12T09:41:50;29.40;59.90
15298;DHT22;7750;48.796;9.026;2023-09-12T09:46:56;29.50;59.80
15298;DHT22;7750;48.796;9.026;2023-09-12T09:51:58;29.80;59.30
15298;DHT22;7750;48.796;9.026;2023-09-12T09:56:59;29.90;58.80
15298;DHT22;7750;48.796;9.026;2023-09-12T10:02:00;30.10;58.90
15298;DHT22;7750;48.796;9.026;2023-09-12T10:07:03;30.30;58.50
15298;DHT22;7750;48.796;9.026;2023-09-12T10:17:38;30.60;57.70
15298;DHT22;7750;48.796;9.026;2023-09-12T10:22:42;30.80;57.20
15298;DHT22;7750;48.796;9.026;2023-09-12T10:33:02;31.00;56.10
15298;DHT22;7750;48.796;9.026;2023-09-12T10:38:07;31.20;55.70
15298;DHT22;7750;48.796;9.026;2023-09-12T10:43:09;31.40;55.30
15298;DHT22;7750;48.796;9.026;2023-09-12T10:48:11;31.60;55.40
15298;DHT22;7750;48.796;9.026;2023-09-12T10:53:13;31.90;55.40
15298;DHT22;7750;48.796;9.026;2023-09-12T10:58:17;32.20;54.50
15298;DHT22;7750;48.796;9.026;2023-09-12T11:08:21;32.80;54.10
15298;DHT22;7750;48.796;9.026;2023-09-12T11:29:45;33.90;50.70
15298;DHT22;7750;48.796;9.026;2023-09-12T11:34:48;34.10;51.10
15298;DHT22;7750;48.796;9.026;2023-09-12T11:39:49;34.30;50.80
15298;DHT22;7750;48.796;9.026;2023-09-12T11:44:52;34.60;50.00
15298;DHT22;7750;48.796;9.026;2023-09-12T11:49:54;34.80;49.70
15298;DHT22;7750;48.796;9.026;2023-09-12T11:54:56;35.00;49.50
15298;DHT22;7750;48.796;9.026;2023-09-12T12:15:40;35.80;47.70
15298;DHT22;7750;48.796;9.026;2023-09-12T12:36:41;36.20;46.70
15298;DHT22;7750;48.796;9.026;2023-09-12T13:04:24;36.30;46.50
15298;DHT22;7750;48.796;9.026;2023-09-12T13:09:30;36.40;46.00
15298;DHT22;7750;48.796;9.026;2023-09-12T13:19:55;36.50;45.60
15298;DHT22;7750;48.796;9.026;2023-09-12T14:33:35;37.00;43.70
15298;DHT22;7750;48.796;9.026;2023-09-12T14:38:36;36.80;42.90
15298;DHT22;7750;48.796;9.026;2023-09-12T14:43:36;36.60;43.50
15298;DHT22;7750;48.796;9.026;2023-09-12T14:48:37;36.40;43.30
15298;DHT22;7750;48.796;9.026;2023-09-12T14:53:52;36.10;43.70
15298;DHT22;7750;48.796;9.026;2023-09-12T14:58:53;36.00;43.40
15298;DHT22;7750;48.796;9.026;2023-09-12T15:03:55;35.90;43.20
15298;DHT22;7750;48.796;9.026;2023-09-12T15:24:36;36.00;43.40
15298;DHT22;7750;48.796;9.026;2023-09-12T15:34:57;36.60;42.50
15298;DHT22;7750;48.796;9.026;2023-09-12T15:39:58;36.40;43.00
15298;DHT22;7750;48.796;9.026;2023-09-12T15:44:58;36.40;43.10
15298;DHT22;7750;48.796;9.026;2023-09-12T15:49:59;36.30;42.80
15298;DHT22;7750;48.796;9.026;2023-09-12T15:55:00;36.20;43.00
15298;DHT22;7750;48.796;9.026;2023-09-12T16:00:01;36.20;43.10
15298;DHT22;7750;48.796;9.026;2023-09-12T16:05:08;36.20;43.10
15298;DHT22;7750;48.796;9.026;2023-09-12T16:10:09;36.20;43.10
15298;DHT22;7750;48.796;9.026;2023-09-12T16:15:13;36.20;43.30
15298;DHT22;7750;48.796;9.026;2023-09-12T16:20:15;36.30;43.00
15298;DHT22;7750;48.796;9.026;2023-09-12T16:25:15;36.20;42.90
15298;DHT22;7750;48.796;9.026;2023-09-12T16:30:16;36.10;43.00
15298;DHT22;7750;48.796;9.026;2023-09-12T16:35:17;36.10;43.30
15298;DHT22;7750;48.796;9.026;2023-09-12T16:40:17;36.00;43.30
15298;DHT22;7750;48.796;9.026;2023-09-12T16:45:21;36.00;43.20
15298;DHT22;7750;48.796;9.026;2023-09-12T16:50:23;35.90;43.20
15298;DHT22;7750;48.796;9.026;2023-09-12T16:55:24;35.70;43.30
15298;DHT22;7750;48.796;9.026;2023-09-12T17:00:27;35.50;43.30
15298;DHT22;7750;48.796;9.026;2023-09-12T17:05:28;35.30;43.30
15298;DHT22;7750;48.796;9.026;2023-09-12T17:10:29;34.90;43.60
15298;DHT22;7750;48.796;9.026;2023-09-12T17:15:29;34.50;43.10
15298;DHT22;7750;48.796;9.026;2023-09-12T17:20:30;34.00;43.50
15298;DHT22;7750;48.796;9.026;2023-09-12T17:25:31;33.40;43.90
15298;DHT22;7750;48.796;9.026;2023-09-12T17:30:32;33.00;44.30
15298;DHT22;7750;48.796;9.026;2023-09-12T17:35:32;32.70;44.90
15298;DHT22;7750;48.796;9.026;2023-09-12T17:40:34;32.40;45.80
15298;DHT22;7750;48.796;9.026;2023-09-12T17:45:35;32.20;45.50
15298;DHT22;7750;48.796;9.026;2023-09-12T17:50:35;32.10;45.60
15298;DHT22;7750;48.796;9.026;2023-09-12T17:55:36;31.80;45.70
15298;DHT22;7750;48.796;9.026;2023-09-12T18:00:36;31.60;46.10
15298;DHT22;7750;48.796;9.026;2023-09-12T18:05:37;31.40;46.30
15298;DHT22;7750;48.796;9.026;2023-09-12T18:10:38;31.50;47.00
15298;DHT22;7750;48.796;9.026;2023-09-12T18:15:38;31.10;47.00
15298;DHT22;7750;48.796;9.026;2023-09-12T18:20:40;30.90;46.90
15298;DHT22;7750;48.796;9.026;2023-09-12T18:25:41;30.70;47.20
15298;DHT22;7750;48.796;9.026;2023-09-12T18:30:41;30.60;47.10
